.
WxDataArchive / Data Records for 2015-11-29
2015-11-28 November 2015 2015-11-30

Data Records for Sunday, 29 November 2015

Time	Temp	Chill	HIndex	Humid	Dewpt	 Wind 	HiWind	WindDir	Rain 	Barom
-----	----	-----	------	-----	-----	------	------	-------	-----	-----
00:00	34.0	34.0	34.0	83	29.4	0	0	---	0.00	30.319 
00:05	34.0	34.0	34.0	83	29.4	0	2	68	0.00	30.319 
00:10	34.0	34.0	34.0	83	29.4	0	2	68	0.00	30.319 
00:15	34.0	34.0	34.0	83	29.4	0	1	68	0.00	30.316 
00:20	33.8	33.8	33.8	83	29.2	0	1	68	0.00	30.316 
00:25	33.8	33.8	33.8	83	29.2	0	0	---	0.00	30.316 
00:30	33.8	33.8	33.8	83	29.2	0	1	68	0.00	30.320 
00:35	33.8	33.8	33.8	83	29.2	0	1	68	0.00	30.320 
00:40	33.7	33.7	33.7	83	29.1	0	1	68	0.00	30.320 
00:45	33.7	33.7	33.7	83	29.1	0	1	68	0.00	30.317 
00:50	33.7	33.7	33.7	83	29.1	0	1	68	0.00	30.317 
00:55	33.5	33.5	33.5	83	28.9	0	2	68	0.00	30.317 
01:00	33.5	33.5	33.5	83	28.9	0	2	68	0.00	30.313 
01:05	33.5	33.5	33.5	83	28.9	0	1	68	0.00	30.313 
01:10	33.4	33.4	33.4	83	28.8	0	1	68	0.00	30.313 
01:15	33.4	33.4	33.4	83	28.8	0	2	68	0.00	30.306 
01:20	33.4	33.4	33.4	84	29.1	0	2	68	0.00	30.306 
01:25	33.4	33.4	33.4	84	29.1	0	3	68	0.00	30.306 
01:30	33.4	33.4	33.4	84	29.1	0	0	---	0.00	30.310 
01:35	33.2	33.2	33.2	84	28.9	0	1	68	0.00	30.310 
01:40	33.2	33.2	33.2	84	28.9	0	2	68	0.00	30.310 
01:45	33.2	33.2	33.2	83	28.6	1	3	68	0.00	30.307 
01:50	33.2	33.2	33.2	83	28.6	0	2	68	0.00	30.307 
01:55	33.1	33.1	33.1	83	28.5	0	2	68	0.00	30.307 
02:00	33.1	33.1	33.1	83	28.5	0	4	112	0.00	30.305 
02:05	33.1	33.1	33.1	83	28.5	0	2	112	0.00	30.305 
02:10	33.1	33.1	33.1	83	28.5	0	0	---	0.00	30.305 
02:15	32.9	32.9	32.9	83	28.3	0	0	---	0.00	30.304 
02:20	32.8	32.8	32.8	83	28.2	0	1	112	0.00	30.304 
02:25	32.7	32.7	32.7	83	28.1	0	2	112	0.00	30.304 
02:30	32.5	32.5	32.5	83	27.9	0	1	112	0.00	30.307 
02:35	32.4	32.4	32.4	83	27.8	0	1	112	0.00	30.307 
02:40	32.2	32.2	32.2	84	27.9	0	0	---	0.00	30.307 
02:45	32.1	32.1	32.1	84	27.8	0	1	112	0.00	30.311 
02:50	31.9	31.9	31.9	84	27.6	0	2	112	0.00	30.311 
02:55	31.8	31.8	31.8	84	27.5	0	2	112	0.00	30.311 
03:00	31.8	31.8	31.8	84	27.5	0	1	112	0.00	30.311 
03:05	31.6	31.6	31.6	84	27.3	0	2	112	0.00	30.311 
03:10	31.6	31.6	31.6	84	27.3	0	2	112	0.00	30.311 
03:15	31.5	31.5	31.5	85	27.5	0	1	112	0.00	30.310 
03:20	31.5	31.5	31.5	85	27.5	0	2	112	0.00	30.310 
03:25	31.3	31.3	31.3	85	27.3	0	1	112	0.00	30.310 
03:30	31.3	31.3	31.3	85	27.3	0	2	112	0.00	30.315 
03:35	31.2	31.2	31.2	85	27.2	0	1	112	0.00	30.315 
03:40	31.0	31.0	31.0	85	27.0	0	2	112	0.00	30.315 
03:45	31.0	31.0	31.0	85	27.0	0	1	112	0.00	30.313 
03:50	30.9	30.9	30.9	85	26.9	0	0	---	0.00	30.313 
03:55	30.7	30.7	30.7	86	27.0	0	0	---	0.00	30.313 
04:00	30.7	30.7	30.7	86	27.0	0	0	---	0.00	30.319 
04:05	30.6	30.6	30.6	86	26.9	0	1	112	0.00	30.319 
04:10	30.6	30.6	30.6	86	26.9	0	1	112	0.00	30.319 
04:15	30.4	30.4	30.4	86	26.7	0	1	112	0.00	30.317 
04:20	30.4	30.4	30.4	86	26.7	0	0	---	0.00	30.317 
04:25	30.4	30.4	30.4	87	27.0	0	1	112	0.00	30.317 
04:30	30.3	30.3	30.3	87	26.9	0	1	112	0.00	30.308 
04:35	30.3	30.3	30.3	87	26.9	0	1	112	0.00	30.308 
04:40	30.3	30.3	30.3	87	26.9	0	1	112	0.00	30.308 
04:45	30.3	30.3	30.3	87	26.9	0	1	112	0.00	30.318 
04:50	30.1	30.1	30.1	87	26.7	0	1	112	0.00	30.318 
04:55	30.1	30.1	30.1	87	26.7	0	2	112	0.00	30.318 
05:00	30.1	30.1	30.1	87	26.7	0	1	112	0.00	30.318 
05:05	30.1	30.1	30.1	87	26.7	0	0	---	0.00	30.318 
05:10	30.0	30.0	30.0	87	26.6	0	1	112	0.00	30.318 
05:15	30.0	30.0	30.0	87	26.6	0	0	---	0.00	30.321 
05:20	30.0	30.0	30.0	87	26.6	0	1	112	0.00	30.321 
05:25	29.8	29.8	29.8	87	26.4	0	0	---	0.00	30.321 
05:30	29.8	29.8	29.8	87	26.4	0	0	---	0.00	30.323 
05:35	29.7	29.7	29.7	87	26.3	0	0	---	0.00	30.323 
05:40	29.7	29.7	29.7	87	26.3	0	0	---	0.00	30.323 
05:45	29.7	29.7	29.7	87	26.3	0	0	---	0.00	30.328 
05:50	29.5	29.5	29.5	87	26.1	0	0	---	0.00	30.328 
05:55	29.5	29.5	29.5	88	26.4	0	0	---	0.00	30.328 
06:00	29.4	29.4	29.4	88	26.3	0	0	---	0.00	30.326 
06:05	29.4	29.4	29.4	88	26.3	0	0	---	0.00	30.326 
06:10	29.4	29.4	29.4	88	26.3	0	0	---	0.00	30.326 
06:15	29.4	29.4	29.4	88	26.3	0	0	---	0.00	30.336 
06:20	29.3	29.3	29.3	88	26.2	0	0	---	0.00	30.336 
06:25	29.3	29.3	29.3	88	26.2	0	0	---	0.00	30.336 
06:30	29.3	29.3	29.3	88	26.2	0	0	---	0.00	30.336 
06:35	29.3	29.3	29.3	88	26.2	0	1	112	0.00	30.336 
06:40	29.1	29.1	29.1	88	26.0	0	1	112	0.00	30.336 
06:45	29.1	29.1	29.1	88	26.0	0	2	112	0.00	30.334 
06:50	29.1	29.1	29.1	87	25.7	0	2	112	0.00	30.334 
06:55	29.1	29.1	29.1	87	25.7	0	2	112	0.00	30.334 
07:00	29.1	29.1	29.1	87	25.7	0	1	112	0.00	30.335 
07:05	29.1	29.1	29.1	87	25.7	0	1	112	0.00	30.335 
07:10	29.1	29.1	29.1	87	25.7	0	1	112	0.00	30.335 
07:15	29.1	29.1	29.1	87	25.7	0	0	---	0.00	30.342 
07:20	29.0	29.0	29.0	87	25.6	0	2	112	0.00	30.342 
07:25	29.0	29.0	29.0	87	25.6	0	2	112	0.00	30.342 
07:30	29.0	29.0	29.0	87	25.6	0	2	112	0.00	30.338 
07:35	29.0	29.0	29.0	86	25.3	0	3	112	0.00	30.338 
07:40	29.0	29.0	29.0	86	25.3	0	1	112	0.00	30.338 
07:45	29.0	29.0	29.0	86	25.3	0	1	112	0.00	30.351 
07:50	29.0	29.0	29.0	86	25.3	0	1	112	0.00	30.351 
07:55	29.1	29.1	29.1	86	25.4	0	2	112	0.00	30.351 
08:00	29.0	29.0	29.0	86	25.3	0	1	112	0.00	30.355 
08:05	29.0	29.0	29.0	86	25.3	0	2	112	0.00	30.355 
08:10	29.0	29.0	29.0	86	25.3	0	2	68	0.00	30.355 
08:15	29.0	29.0	29.0	86	25.3	0	2	68	0.00	30.352 
08:20	29.1	29.1	29.1	86	25.4	0	2	68	0.00	30.352 
08:25	29.1	29.1	29.1	86	25.4	0	1	68	0.00	30.352 
08:30	29.1	29.1	29.1	85	25.2	0	2	68	0.00	30.354 
08:35	29.3	29.3	29.3	85	25.4	0	2	68	0.00	30.354 
08:40	29.3	29.3	29.3	85	25.4	0	6	68	0.00	30.354 
08:45	29.4	29.4	29.4	85	25.5	0	2	112	0.00	30.354 
08:50	29.4	29.4	29.4	85	25.5	0	2	112	0.00	30.354 
08:55	29.5	29.5	29.5	84	25.3	0	1	68	0.00	30.354 
09:00	29.7	29.7	29.7	84	25.5	1	5	90	0.00	30.345 
09:05	29.8	29.8	29.8	84	25.6	0	2	90	0.00	30.345 
09:10	30.0	30.0	30.0	84	25.8	0	3	90	0.00	30.345 
09:15	30.1	30.1	30.1	84	25.9	0	1	90	0.00	30.355 
09:20	30.3	30.3	30.3	83	25.8	0	2	90	0.00	30.355 
09:25	30.4	30.4	30.4	82	25.6	2	5	90	0.00	30.355 
09:30	30.4	30.4	30.4	82	25.6	1	4	90	0.00	30.366 
09:35	30.4	30.4	30.4	82	25.6	1	5	90	0.00	30.366 
09:40	30.6	30.6	30.6	81	25.5	1	4	90	0.00	30.366 
09:45	30.7	30.7	30.7	81	25.6	0	3	90	0.00	30.371 
09:50	30.9	30.9	30.9	81	25.8	0	2	90	0.00	30.371 
09:55	31.0	31.0	31.0	80	25.6	0	3	90	0.00	30.371 
10:00	31.2	31.2	31.2	81	26.1	0	2	90	0.00	30.383 
10:05	31.3	31.3	31.3	80	25.9	1	5	90	0.00	30.383 
10:10	31.5	31.5	31.5	79	25.8	1	4	112	0.00	30.383 
10:15	31.6	31.6	31.6	78	25.5	1	4	68	0.00	30.370 
10:20	31.6	31.6	31.6	78	25.5	1	5	90	0.00	30.370 
10:25	31.6	31.6	31.6	78	25.5	2	6	90	0.00	30.370 
10:30	31.9	31.9	31.9	78	25.8	0	2	68	0.00	30.366 
10:35	32.2	32.2	32.2	78	26.1	0	2	68	0.00	30.366 
10:40	32.4	32.4	32.4	78	26.3	1	4	90	0.00	30.366 
10:45	32.4	32.4	32.4	77	26.0	2	5	90	0.00	30.362 
10:50	32.7	32.7	32.7	77	26.3	1	3	68	0.00	30.362 
10:55	32.7	32.7	32.7	77	26.3	1	4	90	0.00	30.362 
11:00	32.8	32.8	32.8	77	26.4	1	4	112	0.00	30.361 
11:05	32.9	32.9	32.9	77	26.5	2	6	112	0.00	30.361 
11:10	33.1	33.1	33.1	77	26.7	1	4	112	0.00	30.361 
11:15	33.1	33.1	33.1	76	26.4	3	5	90	0.00	30.355 
11:20	33.4	33.4	33.4	77	27.0	2	6	90	0.00	30.355 
11:25	33.5	33.5	33.5	76	26.8	1	5	90	0.00	30.355 
11:30	33.5	33.5	33.5	76	26.8	1	5	90	0.00	30.350 
11:35	33.7	33.7	33.7	76	27.0	1	3	90	0.00	30.350 
11:40	33.8	33.8	33.8	76	27.1	1	4	68	0.00	30.350 
11:45	34.1	34.1	34.1	76	27.3	2	5	68	0.00	30.334 
11:50	34.3	34.3	34.3	75	27.2	2	4	90	0.00	30.334 
11:55	34.4	34.4	34.4	76	27.6	1	4	90	0.00	30.334 
12:00	34.4	34.4	34.4	75	27.3	1	5	90	0.00	30.333 
12:05	34.4	34.4	34.4	74	27.0	1	4	112	0.00	30.333 
12:10	34.6	34.6	34.6	74	27.2	2	4	112	0.00	30.333 
12:15	34.7	34.7	34.7	74	27.3	2	5	90	0.00	30.313 
12:20	34.9	34.9	34.9	74	27.5	2	4	90	0.00	30.313 
12:25	35.0	35.0	35.0	73	27.2	2	5	90	0.00	30.313 
12:30	35.3	35.3	35.3	73	27.5	2	4	90	0.00	30.312 
12:35	35.3	35.3	35.3	73	27.5	1	4	90	0.00	30.312 
12:40	35.5	35.5	35.5	72	27.4	2	5	90	0.00	30.312 
12:45	35.5	35.5	35.5	72	27.4	2	6	90	0.00	30.301 
12:50	35.5	35.5	35.5	73	27.7	2	7	90	0.00	30.301 
12:55	35.5	35.5	35.5	73	27.7	1	7	90	0.00	30.301 
13:00	35.5	35.5	35.5	72	27.4	2	5	112	0.00	30.301 
13:05	35.6	35.6	35.6	72	27.5	1	5	112	0.00	30.301 
13:10	35.6	35.6	35.6	72	27.5	1	4	112	0.00	30.301 
13:15	35.8	35.8	35.8	72	27.7	1	4	90	0.00	30.304 
13:20	35.9	35.9	35.9	72	27.8	0	3	90	0.00	30.304 
13:25	36.2	36.2	36.2	71	27.7	0	3	90	0.00	30.304 
13:30	36.3	36.3	36.3	70	27.5	1	3	90	0.00	30.307 
13:35	36.5	36.5	36.5	69	27.3	1	3	90	0.00	30.307 
13:40	36.5	36.5	36.5	69	27.3	0	1	90	0.00	30.307 
13:45	36.9	36.9	36.9	70	28.0	0	2	90	0.00	30.311 
13:50	37.0	37.0	37.0	67	27.1	1	3	22	0.00	30.311 
13:55	37.0	37.0	37.0	67	27.1	1	3	68	0.00	30.311 
14:00	37.2	37.2	37.2	67	27.3	0	3	68	0.00	30.296 
14:05	37.2	37.2	37.2	67	27.3	0	3	68	0.00	30.296 
14:10	37.2	37.2	37.2	66	26.9	1	5	68	0.00	30.296 
14:15	37.2	37.2	37.2	67	27.3	1	4	90	0.00	30.288 
14:20	37.3	37.3	37.3	65	26.6	1	4	90	0.00	30.288 
14:25	37.2	37.2	37.2	64	26.2	1	4	68	0.00	30.288 
14:30	37.3	37.3	37.3	65	26.6	1	4	90	0.00	30.270 
14:35	37.3	37.3	37.3	62	25.5	1	5	90	0.00	30.270 
14:40	37.3	37.3	37.3	63	25.9	1	4	90	0.00	30.270 
14:45	37.3	37.3	37.3	62	25.5	1	6	45	0.00	30.275 
14:50	37.3	37.3	37.3	63	25.9	1	5	90	0.00	30.275 
14:55	37.3	37.3	37.3	63	25.9	1	3	45	0.00	30.275 
15:00	37.2	37.2	37.2	62	25.4	1	3	90	0.00	30.279 
15:05	37.2	37.2	37.2	61	25.0	1	5	90	0.00	30.279 
15:10	37.2	37.2	37.2	61	25.0	0	2	112	0.00	30.279 
15:15	37.2	37.2	37.2	60	24.6	0	3	22	0.00	30.277 
15:20	37.2	37.2	37.2	59	24.2	0	2	68	0.00	30.277 
15:25	37.2	37.2	37.2	60	24.6	0	2	68	0.00	30.277 
15:30	37.2	37.2	37.2	59	24.2	1	3	68	0.00	30.283 
15:35	37.2	37.2	37.2	58	23.8	1	5	90	0.00	30.283 
15:40	37.0	37.0	37.0	58	23.6	1	3	90	0.00	30.283 
15:45	37.0	37.0	37.0	60	24.4	0	5	22	0.00	30.287 
15:50	36.9	36.9	36.9	60	24.3	1	4	90	0.00	30.287 
15:55	36.9	36.9	36.9	61	24.7	1	4	112	0.00	30.287 
16:00	36.8	36.8	36.8	58	23.4	1	6	45	0.00	30.287 
16:05	36.6	36.6	36.6	58	23.2	1	6	112	0.00	30.287 
16:10	36.5	36.5	36.5	58	23.1	0	2	45	0.00	30.287 
16:15	36.5	36.5	36.5	60	24.0	0	2	135	0.00	30.288 
16:20	36.5	36.5	36.5	59	23.6	0	3	135	0.00	30.288 
16:25	36.3	36.3	36.3	59	23.4	1	4	90	0.00	30.288 
16:30	36.2	36.2	36.2	61	24.1	1	4	90	0.00	30.288 
16:35	36.2	36.2	36.2	62	24.5	1	6	68	0.00	30.288 
16:40	36.0	36.0	36.0	62	24.3	1	4	68	0.00	30.288 
16:45	35.9	35.9	35.9	63	24.5	1	3	90	0.00	30.290 
16:50	35.8	35.8	35.8	64	24.8	2	5	90	0.00	30.290 
16:55	35.6	35.6	35.6	65	25.0	0	2	90	0.00	30.290 
17:00	35.5	35.5	35.5	66	25.3	1	4	90	0.00	30.279 
17:05	35.3	35.3	35.3	67	25.5	1	6	112	0.00	30.279 
17:10	35.2	35.2	35.2	67	25.4	1	4	112	0.00	30.279 
17:15	35.0	35.0	35.0	67	25.2	1	3	112	0.00	30.290 
17:20	34.9	34.9	34.9	68	25.4	1	4	68	0.00	30.290 
17:25	34.9	34.9	34.9	69	25.8	0	4	112	0.00	30.290 
17:30	34.7	34.7	34.7	69	25.6	1	2	112	0.00	30.294 
17:35	34.6	34.6	34.6	70	25.8	1	3	270	0.00	30.294 
17:40	34.6	34.6	34.6	71	26.2	0	2	270	0.00	30.294 
17:45	34.4	34.4	34.4	72	26.3	0	2	270	0.00	30.294 
17:50	34.3	34.3	34.3	72	26.2	0	3	112	0.00	30.294 
17:55	34.3	34.3	34.3	73	26.6	0	2	112	0.00	30.294 
18:00	34.1	34.1	34.1	73	26.4	1	4	68	0.00	30.306 
18:05	34.1	34.1	34.1	73	26.4	0	3	90	0.00	30.306 
18:10	34.1	34.1	34.1	73	26.4	1	4	90	0.00	30.306 
18:15	34.0	34.0	34.0	73	26.3	1	2	90	0.00	30.309 
18:20	34.0	34.0	34.0	73	26.3	0	3	90	0.00	30.309 
18:25	34.0	34.0	34.0	72	25.9	1	5	112	0.00	30.309 
18:30	34.0	34.0	34.0	73	26.3	0	3	112	0.00	30.313 
18:35	33.8	33.8	33.8	73	26.1	1	4	112	0.00	30.313 
18:40	33.8	33.8	33.8	73	26.1	0	2	112	0.00	30.313 
18:45	33.8	33.8	33.8	73	26.1	0	2	112	0.00	30.312 
18:50	33.7	33.7	33.7	74	26.3	0	1	112	0.00	30.312 
18:55	33.7	33.7	33.7	74	26.3	0	1	112	0.00	30.312 
19:00	33.5	33.5	33.5	75	26.4	0	3	112	0.00	30.310 
19:05	33.5	33.5	33.5	76	26.8	1	4	90	0.00	30.310 
19:10	33.4	33.4	33.4	77	27.0	1	5	90	0.00	30.310 
19:15	33.2	33.2	33.2	77	26.8	1	4	90	0.00	30.310 
19:20	33.2	33.2	33.2	77	26.8	1	4	90	0.00	30.310 
19:25	33.1	33.1	33.1	78	27.0	1	4	90	0.00	30.310 
19:30	32.9	32.9	32.9	79	27.1	1	5	112	0.00	30.296 
19:35	32.9	32.9	32.9	80	27.4	1	4	112	0.00	30.296 
19:40	32.8	32.8	32.8	80	27.3	0	4	112	0.00	30.296 
19:45	32.8	32.8	32.8	81	27.6	2	6	112	0.00	30.308 
19:50	32.8	32.8	32.8	81	27.6	0	3	90	0.00	30.308 
19:55	32.7	32.7	32.7	82	27.8	1	5	90	0.00	30.308 
20:00	32.5	32.5	32.5	82	27.6	1	4	90	0.00	30.307 
20:05	32.5	32.5	32.5	83	27.9	0	1	90	0.00	30.307 
20:10	32.4	32.4	32.4	83	27.8	0	1	90	0.00	30.307 
20:15	32.4	32.4	32.4	83	27.8	0	1	90	0.00	30.307 
20:20	32.2	32.2	32.2	83	27.6	0	1	90	0.00	30.307 
20:25	32.1	32.1	32.1	83	27.5	0	0	---	0.00	30.307 
20:30	32.1	32.1	32.1	84	27.8	0	0	---	0.00	30.303 
20:35	31.9	31.9	31.9	84	27.6	0	1	90	0.00	30.303 
20:40	31.8	31.8	31.8	84	27.5	0	0	---	0.00	30.303 
20:45	31.8	31.8	31.8	84	27.5	0	0	---	0.00	30.326 
20:50	31.6	31.6	31.6	84	27.3	0	0	---	0.00	30.326 
20:55	31.5	31.5	31.5	84	27.2	0	0	---	0.00	30.326 
21:00	31.5	31.5	31.5	84	27.2	0	0	---	0.00	30.326 
21:05	31.3	31.3	31.3	85	27.3	0	0	---	0.00	30.326 
21:10	31.2	31.2	31.2	85	27.2	0	1	90	0.00	30.326 
21:15	31.2	31.2	31.2	85	27.2	0	1	90	0.00	30.321 
21:20	31.2	31.2	31.2	85	27.2	0	1	90	0.00	30.321 
21:25	31.2	31.2	31.2	85	27.2	0	1	90	0.00	30.321 
21:30	31.2	31.2	31.2	86	27.5	0	2	90	0.00	30.307 
21:35	31.2	31.2	31.2	86	27.5	0	2	90	0.00	30.307 
21:40	31.3	31.3	31.3	86	27.6	0	2	90	0.00	30.307 
21:45	31.3	31.3	31.3	86	27.6	1	2	90	0.00	30.295 
21:50	31.3	31.3	31.3	86	27.6	0	3	90	0.00	30.295 
21:55	31.2	31.2	31.2	86	27.5	1	2	90	0.00	30.295 
22:00	31.2	31.2	31.2	86	27.5	0	2	90	0.00	30.302 
22:05	31.2	31.2	31.2	87	27.8	0	3	90	0.00	30.302 
22:10	31.0	31.0	31.0	87	27.6	0	3	90	0.00	30.302 
22:15	30.9	30.9	30.9	87	27.5	0	2	90	0.00	30.306 
22:20	30.9	30.9	30.9	87	27.5	0	2	90	0.00	30.306 
22:25	30.7	30.7	30.7	87	27.3	0	3	90	0.00	30.306 
22:30	30.7	30.7	30.7	87	27.3	0	2	112	0.00	30.307 
22:35	30.7	30.7	30.7	87	27.3	0	0	---	0.00	30.307 
22:40	30.6	30.6	30.6	88	27.5	0	2	112	0.00	30.307 
22:45	30.6	30.6	30.6	88	27.5	0	1	112	0.00	30.301 
22:50	30.6	30.6	30.6	88	27.5	0	1	112	0.00	30.301 
22:55	30.6	30.6	30.6	88	27.5	0	1	112	0.00	30.301 
23:00	30.6	30.6	30.6	88	27.5	0	1	112	0.00	30.307 
23:05	30.4	30.4	30.4	88	27.3	0	1	112	0.00	30.307 
23:10	30.4	30.4	30.4	88	27.3	0	0	---	0.00	30.307 
23:15	30.4	30.4	30.4	88	27.3	0	1	112	0.00	30.309 
23:20	30.4	30.4	30.4	88	27.3	0	0	---	0.00	30.309 
23:25	30.4	30.4	30.4	88	27.3	0	0	---	0.00	30.309 
23:30	30.3	30.3	30.3	88	27.2	0	1	112	0.00	30.309 
23:35	30.3	30.3	30.3	88	27.2	0	2	112	0.00	30.309 
23:40	30.3	30.3	30.3	89	27.5	0	2	112	0.00	30.309 
23:45	30.3	30.3	30.3	89	27.5	0	1	112	0.00	30.305 
23:50	30.3	30.3	30.3	89	27.5	0	2	112	0.00	30.305 
23:55	30.3	30.3	30.3	89	27.5	0	2	112	0.00	30.305 

CoCoRaHS
IN-AL-39
A2 Web Hosting
Creative Commons License
GoDaddy
search engine by freefind advanced

loaded 2018-11-19 19:15:46 • last modified 2010-11-18 10:43:29
Privacy PolicyDisclaimer
• wx.awcolley.com is powered by PmWiki v.2002016 •
• all content (unless otherwise noted) © 2018 A W Colley